sensor_id;sensor_type;location;lat;lon;timestamp;pressure;altitude;pressure_sealevel;temperature;humidity
54194;BME280;40102;50.906;6.972;2023-05-20T00:00:23;101521.56;;;17.42;44.84
54194;BME280;40102;50.906;6.972;2023-05-20T00:02:48;101529.56;;;17.44;45.01
54194;BME280;40102;50.906;6.972;2023-05-20T00:05:14;101525.03;;;17.44;44.89
54194;BME280;40102;50.906;6.972;2023-05-20T00:07:39;101525.03;;;17.44;44.83
54194;BME280;40102;50.906;6.972;2023-05-20T00:10:05;101517.78;;;17.45;44.69
54194;BME280;40102;50.906;6.972;2023-05-20T00:12:31;101517.78;;;17.45;45.04
54194;BME280;40102;50.906;6.972;2023-05-20T00:15:00;101514.31;;;17.43;44.91
54194;BME280;40102;50.906;6.972;2023-05-20T00:17:25;101517.00;;;17.43;45.05
54194;BME280;40102;50.906;6.972;2023-05-20T00:19:52;101520.69;;;17.42;44.94
54194;BME280;40102;50.906;6.972;2023-05-20T00:22:18;101513.66;;;17.39;45.24
54194;BME280;40102;50.906;6.972;2023-05-20T00:24:43;101513.88;;;17.36;45.10
54194;BME280;40102;50.906;6.972;2023-05-20T00:27:09;101522.97;;;17.35;45.40
54194;BME280;40102;50.906;6.972;2023-05-20T00:29:34;101513.25;;;17.33;45.46
54194;BME280;40102;50.906;6.972;2023-05-20T00:31:59;101509.66;;;17.32;45.22
54194;BME280;40102;50.906;6.972;2023-05-20T00:34:25;101513.34;;;17.31;45.54
54194;BME280;40102;50.906;6.972;2023-05-20T00:36:50;101508.16;;;17.28;45.31
54194;BME280;40102;50.906;6.972;2023-05-20T00:39:16;101500.38;;;17.24;45.43
54194;BME280;40102;50.906;6.972;2023-05-20T00:41:41;101508.59;;;17.22;45.26
54194;BME280;40102;50.906;6.972;2023-05-20T00:44:07;101498.88;;;17.20;45.38
54194;BME280;40102;50.906;6.972;2023-05-20T00:46:32;101500.81;;;17.17;45.56
54194;BME280;40102;50.906;6.972;2023-05-20T00:48:58;101495.28;;;17.19;45.43
54194;BME280;40102;50.906;6.972;2023-05-20T00:51:23;101499.09;;;17.16;45.34
54194;BME280;40102;50.906;6.972;2023-05-20T00:53:49;101487.50;;;17.14;45.65
54194;BME280;40102;50.906;6.972;2023-05-20T00:56:15;101493.91;;;17.13;45.42
54194;BME280;40102;50.906;6.972;2023-05-20T00:58:41;101484.81;;;17.14;45.21
54194;BME280;40102;50.906;6.972;2023-05-20T01:01:07;101483.09;;;17.13;45.43
54194;BME280;40102;50.906;6.972;2023-05-20T01:03:32;101488.38;;;17.15;45.45
54194;BME280;40102;50.906;6.972;2023-05-20T01:05:58;101481.25;;;17.14;45.59
54194;BME280;40102;50.906;6.972;2023-05-20T01:08:25;101483.09;;;17.13;45.67
54194;BME280;40102;50.906;6.972;2023-05-20T01:11:02;101479.50;;;17.13;45.66
54194;BME280;40102;50.906;6.972;2023-05-20T01:13:34;101483.31;;;17.10;45.79
54194;BME280;40102;50.906;6.972;2023-05-20T01:16:02;101489.56;;;17.11;45.68
54194;BME280;40102;50.906;6.972;2023-05-20T01:18:29;101478.13;;;17.07;45.54
54194;BME280;40102;50.906;6.972;2023-05-20T01:20:56;101484.38;;;17.08;45.68
54194;BME280;40102;50.906;6.972;2023-05-20T01:23:32;101479.19;;;17.05;46.04
54194;BME280;40102;50.906;6.972;2023-05-20T01:25:57;101475.84;;;17.01;45.67
54194;BME280;40102;50.906;6.972;2023-05-20T01:28:22;101478.88;;;16.97;45.97
54194;BME280;40102;50.906;6.972;2023-05-20T01:37:34;101472.28;;;16.88;46.00
54194;BME280;40102;50.906;6.972;2023-05-20T01:40:02;101468.06;;;16.84;46.14
54194;BME280;40102;50.906;6.972;2023-05-20T01:42:29;101472.06;;;16.78;46.31
54194;BME280;40102;50.906;6.972;2023-05-20T01:44:54;101462.31;;;16.76;46.52
54194;BME280;40102;50.906;6.972;2023-05-20T01:47:20;101475.63;;;16.79;46.44
54194;BME280;40102;50.906;6.972;2023-05-20T01:49:45;101463.84;;;16.80;46.33
54194;BME280;40102;50.906;6.972;2023-05-20T01:52:12;101465.69;;;16.79;46.17
54194;BME280;40102;50.906;6.972;2023-05-20T01:54:37;101463.84;;;16.80;46.11
54194;BME280;40102;50.906;6.972;2023-05-20T01:57:03;101464.59;;;16.82;45.94
54194;BME280;40102;50.906;6.972;2023-05-20T01:59:28;101466.31;;;16.83;46.27
54194;BME280;40102;50.906;6.972;2023-05-20T02:01:56;101459.94;;;16.84;46.33
54194;BME280;40102;50.906;6.972;2023-05-20T02:04:22;101453.69;;;16.83;46.12
54194;BME280;40102;50.906;6.972;2023-05-20T02:06:47;101454.66;;;16.82;46.20
54194;BME280;40102;50.906;6.972;2023-05-20T02:09:17;101453.69;;;16.83;46.35
54194;BME280;40102;50.906;6.972;2023-05-20T02:11:42;101458.34;;;16.81;46.28
54194;BME280;40102;50.906;6.972;2023-05-20T02:14:08;101461.25;;;16.78;46.35
54194;BME280;40102;50.906;6.972;2023-05-20T02:16:33;101453.25;;;16.77;46.52
54194;BME280;40102;50.906;6.972;2023-05-20T02:18:58;101453.47;;;16.74;46.39
54194;BME280;40102;50.906;6.972;2023-05-20T02:21:24;101453.47;;;16.74;46.57
54194;BME280;40102;50.906;6.972;2023-05-20T02:23:50;101457.13;;;16.73;46.37
54194;BME280;40102;50.906;6.972;2023-05-20T02:26:16;101452.16;;;16.67;46.60
54194;BME280;40102;50.906;6.972;2023-05-20T02:28:41;101447.16;;;16.61;46.98
54194;BME280;40102;50.906;6.972;2023-05-20T02:31:11;101445.53;;;16.58;46.99
54194;BME280;40102;50.906;6.972;2023-05-20T02:33:36;101443.16;;;16.53;46.84
54194;BME280;40102;50.906;6.972;2023-05-20T02:36:02;101445.84;;;16.53;46.81
54194;BME280;40102;50.906;6.972;2023-05-20T02:38:27;101444.13;;;16.52;47.06
54194;BME280;40102;50.906;6.972;2023-05-20T02:40:53;101448.75;;;16.50;46.94
54194;BME280;40102;50.906;6.972;2023-05-20T02:43:19;101448.97;;;16.47;47.29
54194;BME280;40102;50.906;6.972;2023-05-20T02:45:45;101451.66;;;16.47;47.03
54194;BME280;40102;50.906;6.972;2023-05-20T02:48:14;101442.25;;;16.40;47.60
54194;BME280;40102;50.906;6.972;2023-05-20T02:50:40;101443.44;;;16.36;47.66
54194;BME280;40102;50.906;6.972;2023-05-20T02:53:05;101443.53;;;16.35;47.83
54194;BME280;40102;50.906;6.972;2023-05-20T02:55:33;101436.53;;;16.32;48.00
54194;BME280;40102;50.906;6.972;2023-05-20T02:57:59;101429.41;;;16.31;47.83
54194;BME280;40102;50.906;6.972;2023-05-20T03:00:25;101433.16;;;16.29;47.99
54194;BME280;40102;50.906;6.972;2023-05-20T03:02:52;101437.50;;;16.31;47.81
54194;BME280;40102;50.906;6.972;2023-05-20T03:05:18;101437.69;;;16.28;48.01
54194;BME280;40102;50.906;6.972;2023-05-20T03:07:43;101430.78;;;16.24;48.04
54194;BME280;40102;50.906;6.972;2023-05-20T03:10:10;101435.31;;;16.24;48.46
54194;BME280;40102;50.906;6.972;2023-05-20T03:12:35;101427.22;;;16.24;48.25
54194;BME280;40102;50.906;6.972;2023-05-20T03:15:01;101431.84;;;16.22;48.09
54194;BME280;40102;50.906;6.972;2023-05-20T03:17:26;101426.25;;;16.25;48.40
54194;BME280;40102;50.906;6.972;2023-05-20T03:19:51;101427.88;;;16.27;48.44
54194;BME280;40102;50.906;6.972;2023-05-20T03:22:17;101423.44;;;16.26;48.29
54194;BME280;40102;50.906;6.972;2023-05-20T03:24:42;101430.69;;;16.26;48.27
54194;BME280;40102;50.906;6.972;2023-05-20T03:27:08;101434.13;;;16.28;48.38
54194;BME280;40102;50.906;6.972;2023-05-20T03:29:33;101443.84;;;16.30;48.19
54194;BME280;40102;50.906;6.972;2023-05-20T03:31:59;101442.13;;;16.29;48.39
54194;BME280;40102;50.906;6.972;2023-05-20T03:34:24;101439.31;;;16.31;48.58
54194;BME280;40102;50.906;6.972;2023-05-20T03:36:52;101432.31;;;16.28;48.49
54194;BME280;40102;50.906;6.972;2023-05-20T03:39:17;101434.78;;;16.31;48.67
54194;BME280;40102;50.906;6.972;2023-05-20T03:41:43;101439.31;;;16.31;48.64
54194;BME280;40102;50.906;6.972;2023-05-20T03:44:08;101436.72;;;16.29;48.90
54194;BME280;40102;50.906;6.972;2023-05-20T03:46:33;101434.25;;;16.26;48.83
54194;BME280;40102;50.906;6.972;2023-05-20T03:48:59;101436.94;;;16.26;48.92
54194;BME280;40102;50.906;6.972;2023-05-20T03:51:26;101448.72;;;16.25;49.11
54194;BME280;40102;50.906;6.972;2023-05-20T03:53:52;101442.22;;;16.28;48.88
54194;BME280;40102;50.906;6.972;2023-05-20T03:56:17;101442.22;;;16.28;49.10
54194;BME280;40102;50.906;6.972;2023-05-20T03:58:43;101445.91;;;16.27;49.07
54194;BME280;40102;50.906;6.972;2023-05-20T04:01:08;101437.69;;;16.28;49.17
54194;BME280;40102;50.906;6.972;2023-05-20T04:03:37;101434.25;;;16.26;49.61
54194;BME280;40102;50.906;6.972;2023-05-20T04:06:02;101441.38;;;16.27;49.34
54194;BME280;40102;50.906;6.972;2023-05-20T04:08:28;101448.59;;;16.27;49.53
54194;BME280;40102;50.906;6.972;2023-05-20T04:10:58;101440.81;;;16.22;49.55
54194;BME280;40102;50.906;6.972;2023-05-20T04:13:24;101444.28;;;16.24;49.47
54194;BME280;40102;50.906;6.972;2023-05-20T04:15:50;101436.50;;;16.19;49.35
54194;BME280;40102;50.906;6.972;2023-05-20T04:18:17;101440.81;;;16.22;49.91
54194;BME280;40102;50.906;6.972;2023-05-20T04:20:43;101437.25;;;16.22;49.78
54194;BME280;40102;50.906;6.972;2023-05-20T04:23:09;101434.66;;;16.20;50.08
54194;BME280;40102;50.906;6.972;2023-05-20T04:25:34;101443.63;;;16.20;50.14
54194;BME280;40102;50.906;6.972;2023-05-20T04:28:00;101437.56;;;16.17;50.22
54194;BME280;40102;50.906;6.972;2023-05-20T04:30:25;101438.63;;;16.14;50.02
54194;BME280;40102;50.906;6.972;2023-05-20T04:32:51;101435.72;;;16.17;50.18
54194;BME280;40102;50.906;6.972;2023-05-20T04:35:17;101443.72;;;16.19;50.30
54194;BME280;40102;50.906;6.972;2023-05-20T04:37:42;101440.25;;;16.17;50.47
54194;BME280;40102;50.906;6.972;2023-05-20T04:40:17;101438.63;;;16.14;50.56
54194;BME280;40102;50.906;6.972;2023-05-20T04:42:43;101450.84;;;16.20;50.63
54194;BME280;40102;50.906;6.972;2023-05-20T04:45:09;101442.00;;;16.18;50.62
54194;BME280;40102;50.906;6.972;2023-05-20T04:47:34;101439.28;;;16.18;50.57
54194;BME280;40102;50.906;6.972;2023-05-20T04:50:06;101446.41;;;16.19;50.65
54194;BME280;40102;50.906;6.972;2023-05-20T04:52:38;101445.75;;;16.15;50.91
54194;BME280;40102;50.906;6.972;2023-05-20T04:55:05;101446.84;;;16.13;50.84
54194;BME280;40102;50.906;6.972;2023-05-20T04:57:32;101450.50;;;16.12;50.97
54194;BME280;40102;50.906;6.972;2023-05-20T04:59:58;101448.78;;;16.11;51.31
54194;BME280;40102;50.906;6.972;2023-05-20T05:02:24;101445.31;;;16.09;51.27
54194;BME280;40102;50.906;6.972;2023-05-20T05:04:49;101440.88;;;16.08;51.51
54194;BME280;40102;50.906;6.972;2023-05-20T05:07:15;101441.00;;;16.06;51.30
54194;BME280;40102;50.906;6.972;2023-05-20T05:09:40;101435.69;;;16.05;51.30
54194;BME280;40102;50.906;6.972;2023-05-20T05:12:06;101448.13;;;16.07;51.21
54194;BME280;40102;50.906;6.972;2023-05-20T05:14:31;101444.56;;;16.07;51.29
54194;BME280;40102;50.906;6.972;2023-05-20T05:16:56;101440.78;;;16.09;51.27
54194;BME280;40102;50.906;6.972;2023-05-20T05:19:22;101437.97;;;16.11;51.54
54194;BME280;40102;50.906;6.972;2023-05-20T05:21:47;101438.84;;;16.11;51.68
54194;BME280;40102;50.906;6.972;2023-05-20T05:24:12;101433.44;;;16.11;51.56
54194;BME280;40102;50.906;6.972;2023-05-20T05:26:38;101434.31;;;16.12;51.83
54194;BME280;40102;50.906;6.972;2023-05-20T05:29:03;101424.69;;;16.08;51.91
54194;BME280;40102;50.906;6.972;2023-05-20T05:31:29;101423.72;;;16.09;51.89
54194;BME280;40102;50.906;6.972;2023-05-20T05:33:54;101426.63;;;16.06;51.90
54194;BME280;40102;50.906;6.972;2023-05-20T05:36:20;101419.50;;;16.05;52.31
54194;BME280;40102;50.906;6.972;2023-05-20T05:38:45;101414.09;;;16.05;52.25
54194;BME280;40102;50.906;6.972;2023-05-20T05:41:10;101404.84;;;16.09;52.53
54194;BME280;40102;50.906;6.972;2023-05-20T05:43:36;101402.03;;;16.10;52.44
54194;BME280;40102;50.906;6.972;2023-05-20T05:46:01;101413.47;;;16.14;52.51
54194;BME280;40102;50.906;6.972;2023-05-20T05:48:27;101402.91;;;16.11;52.51
54194;BME280;40102;50.906;6.972;2023-05-20T05:50:52;101405.59;;;16.11;52.52
54194;BME280;40102;50.906;6.972;2023-05-20T05:53:17;101403.66;;;16.13;52.61
54194;BME280;40102;50.906;6.972;2023-05-20T05:55:45;101390.06;;;16.14;52.49
54194;BME280;40102;50.906;6.972;2023-05-20T05:58:11;101395.16;;;16.19;52.95
54194;BME280;40102;50.906;6.972;2023-05-20T06:00:37;101392.56;;;16.17;53.10
54194;BME280;40102;50.906;6.972;2023-05-20T06:03:02;101390.81;;;16.16;53.04
54194;BME280;40102;50.906;6.972;2023-05-20T06:05:29;101398.16;;;16.14;53.14
54194;BME280;40102;50.906;6.972;2023-05-20T06:07:55;101397.94;;;16.17;53.14
54194;BME280;40102;50.906;6.972;2023-05-20T06:10:20;101394.03;;;16.09;53.50
54194;BME280;40102;50.906;6.972;2023-05-20T06:12:46;101404.84;;;16.09;53.49
54194;BME280;40102;50.906;6.972;2023-05-20T06:15:11;101395.88;;;16.08;54.25
54194;BME280;40102;50.906;6.972;2023-05-20T06:17:37;101388.75;;;16.07;54.09
54194;BME280;40102;50.906;6.972;2023-05-20T06:20:02;101392.22;;;16.09;53.86
54194;BME280;40102;50.906;6.972;2023-05-20T06:22:28;101396.53;;;16.12;53.88
54194;BME280;40102;50.906;6.972;2023-05-20T06:24:54;101388.66;;;16.09;54.10
54194;BME280;40102;50.906;6.972;2023-05-20T06:27:21;101390.28;;;16.11;54.03
54194;BME280;40102;50.906;6.972;2023-05-20T06:29:46;101389.00;;;16.17;54.05
54194;BME280;40102;50.906;6.972;2023-05-20T06:32:11;101389.75;;;16.19;54.14
54194;BME280;40102;50.906;6.972;2023-05-20T06:34:37;101381.84;;;16.16;54.00
54194;BME280;40102;50.906;6.972;2023-05-20T06:37:02;101391.38;;;16.22;54.31
54194;BME280;40102;50.906;6.972;2023-05-20T06:39:27;101390.19;;;16.26;54.16
54194;BME280;40102;50.906;6.972;2023-05-20T06:41:53;101381.13;;;16.27;54.13
54194;BME280;40102;50.906;6.972;2023-05-20T06:44:18;101386.41;;;16.28;54.23
54194;BME280;40102;50.906;6.972;2023-05-20T06:46:44;101388.03;;;16.31;54.30
54194;BME280;40102;50.906;6.972;2023-05-20T06:49:09;101389.66;;;16.33;54.25
54194;BME280;40102;50.906;6.972;2023-05-20T06:51:34;101385.22;;;16.32;54.86
54194;BME280;40102;50.906;6.972;2023-05-20T06:54:00;101382.75;;;16.29;54.83
54194;BME280;40102;50.906;6.972;2023-05-20T06:56:25;101380.81;;;16.31;54.60
54194;BME280;40102;50.906;6.972;2023-05-20T06:58:51;101373.25;;;16.36;54.48
54194;BME280;40102;50.906;6.972;2023-05-20T07:01:16;101370.34;;;16.39;54.63
54194;BME280;40102;50.906;6.972;2023-05-20T07:03:41;101371.97;;;16.42;54.39
54194;BME280;40102;50.906;6.972;2023-05-20T07:06:08;101374.56;;;16.43;54.76
54194;BME280;40102;50.906;6.972;2023-05-20T07:08:33;101377.25;;;16.43;54.48
54194;BME280;40102;50.906;6.972;2023-05-20T07:10:59;101377.25;;;16.43;54.41
54194;BME280;40102;50.906;6.972;2023-05-20T07:13:24;101365.69;;;16.41;54.74
54194;BME280;40102;50.906;6.972;2023-05-20T07:15:50;101365.91;;;16.51;55.04
54194;BME280;40102;50.906;6.972;2023-05-20T07:18:16;101362.13;;;16.53;55.20
54194;BME280;40102;50.906;6.972;2023-05-20T07:20:42;101362.56;;;16.60;55.14
54194;BME280;40102;50.906;6.972;2023-05-20T07:23:08;101353.50;;;16.61;54.65
54194;BME280;40102;50.906;6.972;2023-05-20T07:25:33;101348.84;;;16.63;54.76
54194;BME280;40102;50.906;6.972;2023-05-20T07:27:59;101352.97;;;16.69;55.07
54194;BME280;40102;50.906;6.972;2023-05-20T07:30:25;101350.81;;;16.74;55.19
54194;BME280;40102;50.906;6.972;2023-05-20T07:32:50;101352.53;;;16.75;55.28
54194;BME280;40102;50.906;6.972;2023-05-20T07:35:16;101345.53;;;16.72;55.08
54194;BME280;40102;50.906;6.972;2023-05-20T07:37:42;101348.13;;;16.74;55.20
54194;BME280;40102;50.906;6.972;2023-05-20T07:40:07;101343.47;;;16.76;55.23
54194;BME280;40102;50.906;6.972;2023-05-20T07:42:33;101335.59;;;16.73;55.28
54194;BME280;40102;50.906;6.972;2023-05-20T07:44:59;101337.53;;;16.71;55.07
54194;BME280;40102;50.906;6.972;2023-05-20T07:47:24;101339.25;;;16.72;55.05
54194;BME280;40102;50.906;6.972;2023-05-20T07:49:50;101339.91;;;16.75;55.14
54194;BME280;40102;50.906;6.972;2023-05-20T07:52:18;101343.56;;;16.74;54.99
54194;BME280;40102;50.906;6.972;2023-05-20T07:54:44;101337.19;;;16.75;55.16
54194;BME280;40102;50.906;6.972;2023-05-20T07:57:09;101338.06;;;16.76;55.66
54194;BME280;40102;50.906;6.972;2023-05-20T07:59:35;101331.69;;;16.77;55.82
54194;BME280;40102;50.906;6.972;2023-05-20T08:02:00;101332.09;;;16.83;55.97
54194;BME280;40102;50.906;6.972;2023-05-20T08:04:25;101339.13;;;16.86;55.73
54194;BME280;40102;50.906;6.972;2023-05-20T08:06:52;101335.34;;;16.89;55.72
54194;BME280;40102;50.906;6.972;2023-05-20T08:09:17;101340.31;;;16.95;55.81
54194;BME280;40102;50.906;6.972;2023-05-20T08:11:43;101331.09;;;16.97;55.80
54194;BME280;40102;50.906;6.972;2023-05-20T08:14:09;101330.78;;;17.02;55.72
54194;BME280;40102;50.906;6.972;2023-05-20T08:16:35;101331.31;;;17.07;55.95
54194;BME280;40102;50.906;6.972;2023-05-20T08:19:01;101333.66;;;17.11;56.12
54194;BME280;40102;50.906;6.972;2023-05-20T08:21:29;101326.31;;;17.13;55.77
54194;BME280;40102;50.906;6.972;2023-05-20T08:23:55;101327.81;;;17.17;55.50
54194;BME280;40102;50.906;6.972;2023-05-20T08:26:20;101316.88;;;17.19;55.68
54194;BME280;40102;50.906;6.972;2023-05-20T08:28:46;101322.94;;;17.23;55.28
54194;BME280;40102;50.906;6.972;2023-05-20T08:31:12;101312.13;;;17.23;55.63
54194;BME280;40102;50.906;6.972;2023-05-20T08:33:38;101314.59;;;17.26;55.41
54194;BME280;40102;50.906;6.972;2023-05-20T08:36:03;101320.53;;;17.31;55.83
54194;BME280;40102;50.906;6.972;2023-05-20T08:38:29;101318.56;;;17.33;55.27
54194;BME280;40102;50.906;6.972;2023-05-20T08:40:55;101320.28;;;17.34;55.32
54194;BME280;40102;50.906;6.972;2023-05-20T08:43:22;101318.34;;;17.36;55.51
54194;BME280;40102;50.906;6.972;2023-05-20T08:45:48;101308.97;;;17.29;55.27
54194;BME280;40102;50.906;6.972;2023-05-20T08:48:17;101315.00;;;17.32;55.38
54194;BME280;40102;50.906;6.972;2023-05-20T08:50:44;101309.25;;;17.37;55.54
54194;BME280;40102;50.906;6.972;2023-05-20T08:53:13;101318.84;;;17.41;55.53
54194;BME280;40102;50.906;6.972;2023-05-20T08:55:45;101307.81;;;17.44;55.44
54194;BME280;40102;50.906;6.972;2023-05-20T08:58:11;101309.06;;;17.51;55.48
54194;BME280;40102;50.906;6.972;2023-05-20T09:00:37;101303.56;;;17.53;55.35
54194;BME280;40102;50.906;6.972;2023-05-20T09:03:03;101311.44;;;17.56;55.70
54194;BME280;40102;50.906;6.972;2023-05-20T09:05:29;101308.59;;;17.57;56.08
54194;BME280;40102;50.906;6.972;2023-05-20T09:08:06;101303.84;;;17.61;55.73
54194;BME280;40102;50.906;6.972;2023-05-20T09:10:32;101306.84;;;17.69;56.00
54194;BME280;40102;50.906;6.972;2023-05-20T09:12:59;101305.28;;;17.77;56.15
54194;BME280;40102;50.906;6.972;2023-05-20T09:15:26;101300.38;;;17.83;55.22
54194;BME280;40102;50.906;6.972;2023-05-20T09:17:51;101301.13;;;17.85;54.77
54194;BME280;40102;50.906;6.972;2023-05-20T09:20:16;101306.31;;;17.88;54.99
54194;BME280;40102;50.906;6.972;2023-05-20T09:22:42;101304.97;;;17.93;55.41
54194;BME280;40102;50.906;6.972;2023-05-20T09:25:08;101300.19;;;17.97;54.99
54194;BME280;40102;50.906;6.972;2023-05-20T09:27:35;101285.31;;;18.02;55.06
54194;BME280;40102;50.906;6.972;2023-05-20T09:30:05;101286.69;;;18.08;55.08
54194;BME280;40102;50.906;6.972;2023-05-20T09:32:31;101286.06;;;18.16;55.38
54194;BME280;40102;50.906;6.972;2023-05-20T09:34:57;101284.59;;;18.23;55.29
54194;BME280;40102;50.906;6.972;2023-05-20T09:37:25;101275.88;;;18.30;54.96
54194;BME280;40102;50.906;6.972;2023-05-20T09:39:56;101273.91;;;18.32;54.33
54194;BME280;40102;50.906;6.972;2023-05-20T09:42:30;101272.19;;;18.31;54.37
54194;BME280;40102;50.906;6.972;2023-05-20T09:45:00;101275.50;;;18.35;54.30
54194;BME280;40102;50.906;6.972;2023-05-20T09:47:28;101279.94;;;18.36;54.58
54194;BME280;40102;50.906;6.972;2023-05-20T09:49:55;101274.53;;;18.36;55.00
54194;BME280;40102;50.906;6.972;2023-05-20T09:52:21;101272.69;;;18.36;54.38
54194;BME280;40102;50.906;6.972;2023-05-20T09:54:48;101269.25;;;18.34;54.65
54194;BME280;40102;50.906;6.972;2023-05-20T09:57:15;101265.66;;;18.34;54.30
54194;BME280;40102;50.906;6.972;2023-05-20T09:59:40;101268.38;;;18.34;54.26
54194;BME280;40102;50.906;6.972;2023-05-20T10:02:07;101267.75;;;18.41;53.86
54194;BME280;40102;50.906;6.972;2023-05-20T10:04:34;101273.69;;;18.47;54.04
54194;BME280;40102;50.906;6.972;2023-05-20T10:16:10;101265.94;;;18.64;53.85
54194;BME280;40102;50.906;6.972;2023-05-20T10:18:55;101270.13;;;18.68;53.58
54194;BME280;40102;50.906;6.972;2023-05-20T10:21:23;101267.06;;;18.73;53.40
54194;BME280;40102;50.906;6.972;2023-05-20T10:23:49;101259.19;;;18.70;53.13
54194;BME280;40102;50.906;6.972;2023-05-20T10:26:15;101261.38;;;18.76;53.35
54194;BME280;40102;50.906;6.972;2023-05-20T10:28:42;101271.25;;;18.77;53.07
54194;BME280;40102;50.906;6.972;2023-05-20T10:31:20;101260.41;;;18.77;53.04
54194;BME280;40102;50.906;6.972;2023-05-20T10:33:46;101263.97;;;18.77;53.09
54194;BME280;40102;50.906;6.972;2023-05-20T10:36:26;101270.50;;;18.75;52.69
54194;BME280;40102;50.906;6.972;2023-05-20T10:38:56;101270.75;;;18.72;53.12
54194;BME280;40102;50.906;6.972;2023-05-20T10:41:27;101269.63;;;18.74;53.09
54194;BME280;40102;50.906;6.972;2023-05-20T10:44:05;101262.38;;;18.75;52.32
54194;BME280;40102;50.906;6.972;2023-05-20T10:46:32;101264.59;;;18.81;53.18
54194;BME280;40102;50.906;6.972;2023-05-20T10:48:58;101270.63;;;18.85;52.06
54194;BME280;40102;50.906;6.972;2023-05-20T10:51:24;101267.53;;;18.78;52.00
54194;BME280;40102;50.906;6.972;2023-05-20T10:53:54;101270.13;;;18.80;52.78
54194;BME280;40102;50.906;6.972;2023-05-20T10:56:22;101259.66;;;18.86;52.47
54194;BME280;40102;50.906;6.972;2023-05-20T10:58:48;101261.59;;;18.95;52.50
54194;BME280;40102;50.906;6.972;2023-05-20T11:01:15;101257.16;;;19.05;53.21
54194;BME280;40102;50.906;6.972;2023-05-20T11:03:42;101256.25;;;19.16;53.28
54194;BME280;40102;50.906;6.972;2023-05-20T11:06:14;101261.91;;;19.24;52.76
54194;BME280;40102;50.906;6.972;2023-05-20T11:08:40;101269.53;;;19.30;52.30
54194;BME280;40102;50.906;6.972;2023-05-20T11:11:06;101258.69;;;19.30;52.67
54194;BME280;40102;50.906;6.972;2023-05-20T11:13:32;101256.69;;;19.32;52.85
54194;BME280;40102;50.906;6.972;2023-05-20T11:15:57;101257.16;;;19.37;52.68
54194;BME280;40102;50.906;6.972;2023-05-20T11:18:25;101257.66;;;19.42;52.76
54194;BME280;40102;50.906;6.972;2023-05-20T11:20:54;101252.09;;;19.44;52.33
54194;BME280;40102;50.906;6.972;2023-05-20T11:23:20;101250.38;;;19.43;52.16
54194;BME280;40102;50.906;6.972;2023-05-20T11:25:49;101242.97;;;19.45;52.56
54194;BME280;40102;50.906;6.972;2023-05-20T11:28:15;101246.41;;;19.47;52.39
54194;BME280;40102;50.906;6.972;2023-05-20T11:30:44;101236.28;;;19.49;52.59
54194;BME280;40102;50.906;6.972;2023-05-20T11:33:14;101236.16;;;19.51;53.26
54194;BME280;40102;50.906;6.972;2023-05-20T11:35:52;101227.06;;;19.52;52.82
54194;BME280;40102;50.906;6.972;2023-05-20T11:38:19;101239.38;;;19.56;52.48
54194;BME280;40102;50.906;6.972;2023-05-20T11:40:49;101236.25;;;19.60;52.44
54194;BME280;40102;50.906;6.972;2023-05-20T11:43:15;101232.28;;;19.64;52.84
54194;BME280;40102;50.906;6.972;2023-05-20T11:45:42;101237.38;;;19.58;51.95
54194;BME280;40102;50.906;6.972;2023-05-20T11:48:08;101236.06;;;19.52;52.83
54194;BME280;40102;50.906;6.972;2023-05-20T11:50:35;101233.09;;;19.55;52.38
54194;BME280;40102;50.906;6.972;2023-05-20T11:53:04;101232.09;;;19.56;52.16
54194;BME280;40102;50.906;6.972;2023-05-20T11:55:31;101230.09;;;19.58;52.18
54194;BME280;40102;50.906;6.972;2023-05-20T11:57:58;101230.84;;;19.60;52.66
54194;BME280;40102;50.906;6.972;2023-05-20T12:00:27;101234.53;;;19.59;52.28
54194;BME280;40102;50.906;6.972;2023-05-20T12:02:52;101223.44;;;19.51;52.22
54194;BME280;40102;50.906;6.972;2023-05-20T12:05:18;101212.00;;;19.48;52.79
54194;BME280;40102;50.906;6.972;2023-05-20T12:07:43;101224.94;;;19.55;53.65
54194;BME280;40102;50.906;6.972;2023-05-20T12:10:09;101225.41;;;19.60;53.04
54194;BME280;40102;50.906;6.972;2023-05-20T12:12:35;101215.16;;;19.64;52.90
54194;BME280;40102;50.906;6.972;2023-05-20T12:15:04;101219.13;;;19.60;52.92
54194;BME280;40102;50.906;6.972;2023-05-20T12:17:43;101217.41;;;19.59;53.10
54194;BME280;40102;50.906;6.972;2023-05-20T12:20:09;101216.41;;;19.60;53.33
54194;BME280;40102;50.906;6.972;2023-05-20T12:22:35;101210.13;;;19.59;53.78
54194;BME280;40102;50.906;6.972;2023-05-20T12:25:00;101197.69;;;19.57;53.29
54194;BME280;40102;50.906;6.972;2023-05-20T12:27:26;101207.06;;;19.53;52.64
54194;BME280;40102;50.906;6.972;2023-05-20T12:29:55;101200.69;;;19.42;53.09
54194;BME280;40102;50.906;6.972;2023-05-20T12:32:20;101192.94;;;19.38;53.38
54194;BME280;40102;50.906;6.972;2023-05-20T12:34:47;101195.91;;;19.35;53.84
54194;BME280;40102;50.906;6.972;2023-05-20T12:37:13;101197.63;;;19.36;54.40
54194;BME280;40102;50.906;6.972;2023-05-20T12:39:38;101191.22;;;19.37;54.45
54194;BME280;40102;50.906;6.972;2023-05-20T12:42:04;101192.66;;;19.41;54.28
54194;BME280;40102;50.906;6.972;2023-05-20T12:44:29;101181.56;;;19.44;53.68
54194;BME280;40102;50.906;6.972;2023-05-20T12:46:55;101174.16;;;19.46;53.09
54194;BME280;40102;50.906;6.972;2023-05-20T12:49:20;101181.91;;;19.51;53.47
54194;BME280;40102;50.906;6.972;2023-05-20T12:51:46;101177.47;;;19.50;52.66
54194;BME280;40102;50.906;6.972;2023-05-20T12:54:11;101185.25;;;19.54;52.90
54194;BME280;40102;50.906;6.972;2023-05-20T12:56:36;101180.69;;;19.55;53.06
54194;BME280;40102;50.906;6.972;2023-05-20T12:59:02;101183.13;;;19.58;53.34
54194;BME280;40102;50.906;6.972;2023-05-20T13:01:27;101173.66;;;19.52;52.82